Terminal Aerodrome Forecast
Issued by NWS

Home | Current Version | Previous Version | Text Only | Print | Product List | Glossary On
Versions: 1 2 3 4 5 6 7 8 9 10 11 12 13 14 15 16 17 18 19 20 21
695
FTUS46 KSEW 281120
TAFHQM
TAF
KHQM 281120Z 2812/2912 26004KT P6SM OVC015
     FM282000 25014KT P6SM SCT025
     FM290400 27010KT P6SM BKN015=

USA.gov is the U.S. government's official web portal to all federal, state and local government web resources and services.